Time;durP1;ratioP1;P1;durP2;ratioP2;P2;SDS_P1;SDS_P2;PMS_P1;PMS_P2;Temp;Humidity;BMP_temperature;BMP_pressure;BME280_temperature;BME280_humidity;BME280_pressure;Samples;Min_cycle;Max_cycle;Signal;HPM_P1;HPM_P2
2022/09/10 00:00:35;;;;;;;1.98;1.30;;;16.40;99.90;;;;;;5047736;28;20217;-59
2022/09/10 00:03:02;;;;;;;3.05;1.33;;;16.30;99.90;;;;;;5040283;28;20197;-59
2022/09/10 00:05:28;;;;;;;2.13;1.35;;;16.20;99.90;;;;;;5051492;28;20323;-59
2022/09/10 00:07:54;;;;;;;1.92;1.35;;;16.30;99.90;;;;;;5044907;28;20189;-60
2022/09/10 00:10:20;;;;;;;1.67;1.02;;;16.10;99.90;;;;;;5045456;28;20220;-60
2022/09/10 00:12:47;;;;;;;4.10;1.27;;;16.30;99.90;;;;;;5032432;28;20214;-59
2022/09/10 00:15:16;;;;;;;3.28;1.25;;;16.20;99.90;;;;;;5050465;28;20181;-60
2022/09/10 00:17:42;;;;;;;1.90;1.35;;;16.10;99.90;;;;;;5047326;28;20209;-60
2022/09/10 00:20:09;;;;;;;1.60;1.20;;;16.30;99.90;;;;;;5050184;28;20239;-60
2022/09/10 00:22:35;;;;;;;2.25;1.13;;;16.40;99.90;;;;;;5050308;28;20439;-60
2022/09/10 00:25:00;;;;;;;3.93;0.90;;;16.20;99.90;;;;;;5048220;28;20677;-60
2022/09/10 00:27:26;;;;;;;2.07;1.20;;;16.20;99.90;;;;;;5050414;28;20197;-59
2022/09/10 00:29:53;;;;;;;1.53;1.10;;;16.10;99.90;;;;;;5050362;28;20281;-60
2022/09/10 00:32:22;;;;;;;1.00;0.90;;;16.30;99.90;;;;;;5048476;28;20443;-59
2022/09/10 00:34:48;;;;;;;1.20;1.00;;;16.50;99.90;;;;;;5042991;28;20673;-60
2022/09/10 00:37:15;;;;;;;2.03;1.10;;;16.20;99.90;;;;;;5049449;28;20186;-60
2022/09/10 00:39:41;;;;;;;2.00;1.10;;;16.00;99.90;;;;;;5040740;28;20206;-60
2022/09/10 00:42:10;;;;;;;1.00;0.90;;;16.20;99.90;;;;;;5046896;28;20228;-59
2022/09/10 00:44:38;;;;;;;1.35;0.85;;;16.40;99.90;;;;;;5046062;28;20431;-60
2022/09/10 00:47:17;;;;;;;1.50;0.93;;;16.40;99.90;;;;;;5041154;28;20186;-59
2022/09/10 00:49:48;;;;;;;1.40;1.00;;;16.40;99.90;;;;;;5048043;28;20216;-59
2022/09/10 00:52:15;;;;;;;1.80;0.80;;;16.20;99.90;;;;;;5048794;28;20186;-59
2022/09/10 00:54:43;;;;;;;1.02;0.93;;;16.40;99.90;;;;;;5049089;28;20229;-59
2022/09/10 00:57:15;;;;;;;1.65;1.30;;;16.00;99.90;;;;;;5030683;28;20197;-59
2022/09/10 00:59:46;;;;;;;1.70;1.17;;;16.10;99.90;;;;;;5049479;28;20308;-59
2022/09/10 01:02:11;;;;;;;0.73;0.70;;;16.40;99.90;;;;;;5049410;28;20196;-59
2022/09/10 01:04:38;;;;;;;1.40;0.83;;;16.10;99.90;;;;;;5042002;28;20182;-60
2022/09/10 01:07:06;;;;;;;1.90;1.10;;;16.00;99.90;;;;;;5031977;28;20200;-59
2022/09/10 01:09:32;;;;;;;2.85;1.10;;;16.20;99.90;;;;;;5042028;28;20201;-60
2022/09/10 01:12:12;;;;;;;1.30;0.80;;;16.10;99.90;;;;;;5049184;28;20193;-59
2022/09/10 01:15:02;;;;;;;1.98;1.00;;;16.40;99.90;;;;;;5050231;28;20826;-59
2022/09/10 01:17:49;;;;;;;2.65;1.50;;;16.00;99.90;;;;;;5053147;28;20199;-59
2022/09/10 01:20:37;;;;;;;1.63;1.40;;;16.00;99.90;;;;;;5046194;28;20698;-59
2022/09/10 01:23:05;;;;;;;2.88;1.00;;;16.00;99.90;;;;;;5045294;28;20181;-60
2022/09/10 01:25:52;;;;;;;2.08;1.20;;;16.20;99.90;;;;;;5051442;28;20217;-59
2022/09/10 01:28:29;;;;;;;1.25;0.80;;;16.20;99.90;;;;;;5050606;28;20194;-59
2022/09/10 01:31:05;;;;;;;1.88;1.15;;;15.80;99.90;;;;;;5055244;28;20693;-60
2022/09/10 01:33:46;;;;;;;1.83;1.05;;;15.90;99.90;;;;;;5054011;28;20185;-59
2022/09/10 01:36:17;;;;;;;2.45;1.00;;;16.00;99.90;;;;;;5055106;28;21442;-60
2022/09/10 01:38:44;;;;;;;1.83;1.10;;;15.90;99.90;;;;;;5054031;28;20581;-59
2022/09/10 01:41:09;;;;;;;1.00;0.90;;;16.00;99.90;;;;;;5052435;28;20346;-59
2022/09/10 01:43:35;;;;;;;1.53;1.00;;;15.90;99.90;;;;;;5038779;28;20272;-61
2022/09/10 01:46:15;;;;;;;1.87;1.00;;;16.00;99.90;;;;;;5053853;28;20270;-61
2022/09/10 01:48:56;;;;;;;1.10;0.90;;;16.20;99.90;;;;;;5054140;28;20200;-59
2022/09/10 01:51:43;;;;;;;1.10;1.00;;;15.90;99.90;;;;;;5050875;28;20258;-60
2022/09/10 01:54:35;;;;;;;1.00;0.90;;;16.20;99.90;;;;;;5053484;28;20181;-60
2022/09/10 01:57:32;;;;;;;0.80;0.80;;;15.70;99.90;;;;;;5051236;28;20272;-60
2022/09/10 02:00:11;;;;;;;1.65;0.95;;;15.70;99.90;;;;;;5055298;28;20216;-59
2022/09/10 02:03:05;;;;;;;0.90;0.85;;;16.00;99.90;;;;;;5051949;28;20203;-59
2022/09/10 02:05:34;;;;;;;1.20;1.10;;;15.80;99.90;;;;;;5052530;28;20213;-60
2022/09/10 02:08:04;;;;;;;2.00;1.00;;;15.80;99.90;;;;;;5048020;28;20174;-60
2022/09/10 02:10:30;;;;;;;4.20;1.20;;;15.70;99.90;;;;;;5051458;28;20201;-60
2022/09/10 02:12:55;;;;;;;0.97;0.90;;;15.60;99.90;;;;;;5053549;28;20192;-59
2022/09/10 02:15:25;;;;;;;1.47;1.10;;;15.80;99.90;;;;;;5052952;28;20216;-60
2022/09/10 02:17:52;;;;;;;1.10;1.00;;;15.60;99.90;;;;;;5050837;28;20230;-60
2022/09/10 02:20:20;;;;;;;1.65;1.25;;;15.80;99.90;;;;;;5050149;28;20206;-60
2022/09/10 02:22:54;;;;;;;2.40;1.40;;;16.10;99.90;;;;;;5050439;28;20196;-59
2022/09/10 02:25:19;;;;;;;3.20;1.30;;;16.00;99.90;;;;;;5048706;28;20178;-60
2022/09/10 02:27:45;;;;;;;2.70;1.50;;;15.90;99.90;;;;;;5056046;28;20764;-60
2022/09/10 02:30:11;;;;;;;2.60;1.20;;;15.90;99.90;;;;;;5056044;28;20212;-60
2022/09/10 02:32:37;;;;;;;4.30;1.38;;;15.80;99.90;;;;;;5052395;28;20182;-60
2022/09/10 02:35:02;;;;;;;1.50;1.40;;;15.60;99.90;;;;;;5050147;28;20189;-59
2022/09/10 02:37:28;;;;;;;2.80;1.07;;;15.40;99.90;;;;;;5035005;28;20235;-59
2022/09/10 02:39:54;;;;;;;2.50;1.10;;;15.40;99.90;;;;;;5049259;28;20685;-62
2022/09/10 02:42:21;;;;;;;2.00;1.50;;;15.50;99.90;;;;;;5052487;28;20178;-59
2022/09/10 02:44:46;;;;;;;1.88;1.13;;;15.60;99.90;;;;;;5053003;28;20837;-60
2022/09/10 02:47:12;;;;;;;1.40;1.10;;;15.40;99.90;;;;;;5047982;28;20182;-60
2022/09/10 02:49:38;;;;;;;2.00;1.30;;;15.50;99.90;;;;;;5052307;28;20440;-60
2022/09/10 02:52:05;;;;;;;3.57;1.40;;;15.60;99.90;;;;;;5053097;28;20455;-60
2022/09/10 02:54:31;;;;;;;1.55;1.45;;;15.50;99.90;;;;;;5050733;28;20817;-60
2022/09/10 02:56:56;;;;;;;1.92;1.65;;;15.60;99.90;;;;;;5052342;28;20228;-60
2022/09/10 02:59:23;;;;;;;2.30;1.50;;;15.80;99.90;;;;;;5052366;28;20213;-60
2022/09/10 03:01:49;;;;;;;2.92;1.77;;;15.50;99.90;;;;;;5051867;28;20765;-60
2022/09/10 03:04:16;;;;;;;1.47;1.37;;;15.50;99.90;;;;;;5046483;28;20192;-60
2022/09/10 03:06:42;;;;;;;2.55;1.42;;;15.50;99.90;;;;;;5043934;28;20181;-60
2022/09/10 03:09:08;;;;;;;1.67;1.35;;;15.30;99.90;;;;;;5053924;28;20183;-59
2022/09/10 03:11:38;;;;;;;1.58;1.23;;;15.60;99.90;;;;;;5051510;28;20204;-60
2022/09/10 03:14:05;;;;;;;1.65;1.10;;;15.70;99.90;;;;;;5051215;28;20810;-59
2022/09/10 03:16:31;;;;;;;1.33;1.20;;;15.40;99.90;;;;;;5033442;28;20270;-59
2022/09/10 03:18:56;;;;;;;1.80;1.70;;;15.60;99.90;;;;;;5044789;28;20185;-59
2022/09/10 03:21:24;;;;;;;2.20;1.37;;;15.80;99.90;;;;;;5051505;28;20210;-60
2022/09/10 03:23:51;;;;;;;2.17;1.05;;;15.70;99.90;;;;;;5047051;28;20545;-60
2022/09/10 03:26:19;;;;;;;1.70;1.25;;;15.60;99.90;;;;;;5047600;28;20174;-60
2022/09/10 03:28:45;;;;;;;1.55;1.00;;;15.90;99.90;;;;;;5051860;28;20667;-61
2022/09/10 03:31:12;;;;;;;1.88;1.10;;;15.80;99.90;;;;;;5048211;28;20205;-60
2022/09/10 03:33:38;;;;;;;2.25;1.50;;;15.80;99.90;;;;;;5043444;28;20328;-60
2022/09/10 03:36:04;;;;;;;2.00;1.17;;;15.90;99.90;;;;;;5049384;28;20642;-60
2022/09/10 03:38:30;;;;;;;1.70;1.30;;;15.90;99.90;;;;;;5047012;28;20194;-60
2022/09/10 03:40:55;;;;;;;1.63;1.30;;;16.00;99.90;;;;;;5046052;28;20221;-60
2022/09/10 03:43:21;;;;;;;1.63;1.03;;;15.80;99.90;;;;;;5046910;28;20265;-60
2022/09/10 03:45:50;;;;;;;1.83;1.50;;;16.00;99.90;;;;;;5051032;28;20268;-60
2022/09/10 03:48:17;;;;;;;2.58;1.42;;;16.00;99.90;;;;;;5045604;28;20443;-60
2022/09/10 03:50:44;;;;;;;2.65;1.25;;;15.90;99.90;;;;;;5048665;28;20308;-59
2022/09/10 03:53:10;;;;;;;2.70;1.15;;;15.90;99.90;;;;;;5049737;28;20617;-60
2022/09/10 03:55:36;;;;;;;2.53;1.55;;;15.80;99.90;;;;;;5050042;28;20291;-60
2022/09/10 03:58:02;;;;;;;2.60;1.30;;;15.80;99.90;;;;;;5050239;28;20324;-60
2022/09/10 04:00:27;;;;;;;3.40;1.50;;;15.70;99.90;;;;;;5049759;28;20552;-60
2022/09/10 04:02:53;;;;;;;3.47;1.30;;;15.70;99.90;;;;;;5029679;28;20182;-60
2022/09/10 04:05:19;;;;;;;1.73;1.40;;;15.90;99.90;;;;;;5049229;28;20188;-60
2022/09/10 04:07:45;;;;;;;1.70;1.30;;;16.00;99.90;;;;;;5050450;28;20427;-61
2022/09/10 04:10:12;;;;;;;2.83;1.63;;;15.90;99.90;;;;;;5040743;28;20589;-60
2022/09/10 04:12:38;;;;;;;1.20;1.10;;;16.00;99.90;;;;;;5050683;28;20221;-60
2022/09/10 04:15:04;;;;;;;4.20;1.23;;;15.70;99.90;;;;;;5030660;28;20720;-60
2022/09/10 04:17:29;;;;;;;3.08;1.25;;;16.00;99.90;;;;;;5049579;28;20933;-60
2022/09/10 04:19:55;;;;;;;1.73;1.30;;;15.60;99.90;;;;;;5050083;28;20228;-59
2022/09/10 04:22:21;;;;;;;1.23;1.13;;;15.70;99.90;;;;;;5043499;28;20266;-60
2022/09/10 04:24:47;;;;;;;3.35;1.20;;;15.80;99.90;;;;;;5044150;28;20197;-60
2022/09/10 04:27:13;;;;;;;3.03;1.80;;;15.80;99.90;;;;;;5047831;28;20186;-60
2022/09/10 04:29:39;;;;;;;1.17;1.07;;;15.80;99.90;;;;;;5050195;28;20541;-60
2022/09/10 04:32:05;;;;;;;3.25;1.38;;;15.80;99.90;;;;;;5047133;28;20447;-60
2022/09/10 04:34:30;;;;;;;2.10;1.10;;;16.10;99.90;;;;;;5048478;28;20190;-60
2022/09/10 04:36:56;;;;;;;2.07;1.37;;;15.80;99.90;;;;;;5049414;28;20256;-60
2022/09/10 04:39:21;;;;;;;1.40;1.20;;;15.90;99.90;;;;;;5046794;28;20197;-60
2022/09/10 04:41:47;;;;;;;3.50;1.47;;;15.70;99.90;;;;;;5049999;28;20274;-60
2022/09/10 04:44:12;;;;;;;1.67;1.20;;;15.70;99.90;;;;;;5048632;28;20177;-60
2022/09/10 04:46:40;;;;;;;1.90;1.47;;;16.10;99.90;;;;;;5049667;28;20181;-60
2022/09/10 04:49:06;;;;;;;1.10;1.00;;;15.80;99.90;;;;;;5044314;28;20174;-61
2022/09/10 04:51:32;;;;;;;1.40;1.30;;;15.80;99.90;;;;;;5041677;28;20224;-60
2022/09/10 04:53:58;;;;;;;3.47;1.52;;;15.80;99.90;;;;;;5047544;28;20272;-60
2022/09/10 04:56:24;;;;;;;2.10;1.48;;;15.90;99.90;;;;;;5049387;28;20197;-60
2022/09/10 04:58:50;;;;;;;1.50;0.90;;;16.00;99.90;;;;;;5048913;28;20201;-59
2022/09/10 05:01:16;;;;;;;1.27;1.00;;;16.10;99.90;;;;;;5041205;28;20214;-60
2022/09/10 05:03:41;;;;;;;1.93;1.20;;;15.80;99.90;;;;;;5046991;28;20635;-60
2022/09/10 05:06:07;;;;;;;3.47;1.40;;;15.60;99.90;;;;;;5049250;28;20170;-60
2022/09/10 05:08:33;;;;;;;1.37;1.10;;;15.90;99.90;;;;;;5049504;28;20216;-60
2022/09/10 05:11:01;;;;;;;1.83;1.03;;;15.80;99.90;;;;;;5044845;28;20224;-60
2022/09/10 05:13:30;;;;;;;1.65;0.95;;;15.80;99.90;;;;;;5044325;28;20190;-60
2022/09/10 05:15:57;;;;;;;2.75;1.25;;;16.00;99.90;;;;;;5048847;28;20178;-60
2022/09/10 05:18:25;;;;;;;1.58;1.05;;;16.00;99.90;;;;;;5030881;28;20265;-60
2022/09/10 05:20:51;;;;;;;1.67;1.10;;;15.90;99.90;;;;;;5044681;28;20213;-60
2022/09/10 05:23:16;;;;;;;1.20;1.10;;;15.90;99.90;;;;;;5049396;28;20185;-60
2022/09/10 05:25:43;;;;;;;1.43;0.90;;;16.00;99.90;;;;;;5046973;28;20517;-60
2022/09/10 05:28:10;;;;;;;2.53;1.50;;;16.00;99.90;;;;;;5048297;28;20436;-60
2022/09/10 05:30:35;;;;;;;1.45;1.00;;;15.80;99.90;;;;;;5046406;28;20572;-60
2022/09/10 05:33:01;;;;;;;1.50;1.40;;;16.00;99.90;;;;;;5045470;28;20174;-60
2022/09/10 05:35:27;;;;;;;1.45;1.17;;;15.90;99.90;;;;;;5049288;28;20193;-60
2022/09/10 05:37:56;;;;;;;2.00;1.10;;;15.90;99.90;;;;;;5044079;28;20195;-60
2022/09/10 05:40:22;;;;;;;1.77;1.40;;;15.80;99.90;;;;;;5041782;28;20209;-60
2022/09/10 05:42:48;;;;;;;1.90;1.80;;;15.90;99.90;;;;;;5031341;28;20181;-60
2022/09/10 05:45:14;;;;;;;1.27;1.17;;;15.80;99.90;;;;;;5048157;28;20188;-60
2022/09/10 05:47:40;;;;;;;2.35;1.70;;;15.80;99.90;;;;;;5044976;28;20177;-60
2022/09/10 05:50:06;;;;;;;1.30;1.20;;;15.80;99.90;;;;;;5046764;28;20213;-60
2022/09/10 05:52:31;;;;;;;1.48;1.00;;;15.70;99.90;;;;;;5039611;28;20579;-60
2022/09/10 05:54:58;;;;;;;1.47;1.00;;;16.00;99.90;;;;;;5043646;28;20181;-60
2022/09/10 05:57:24;;;;;;;1.45;1.10;;;15.90;99.90;;;;;;5048948;28;20206;-60
2022/09/10 05:59:51;;;;;;;2.97;0.90;;;16.10;99.90;;;;;;5023487;28;20267;-60
2022/09/10 06:02:18;;;;;;;2.03;1.20;;;16.10;99.90;;;;;;5045219;28;20460;-60
2022/09/10 06:04:44;;;;;;;1.50;1.27;;;16.40;99.90;;;;;;5039777;28;20186;-59
2022/09/10 06:07:10;;;;;;;1.33;1.00;;;16.30;99.90;;;;;;5047194;28;20266;-60
2022/09/10 06:09:36;;;;;;;1.00;0.70;;;16.30;99.90;;;;;;5039686;28;20193;-57
2022/09/10 06:12:02;;;;;;;0.70;0.70;;;16.30;99.90;;;;;;5050079;28;20190;-57
2022/09/10 06:14:28;;;;;;;0.82;0.82;;;16.40;99.90;;;;;;5052823;28;21032;-56
2022/09/10 06:16:54;;;;;;;1.23;0.82;;;16.30;99.90;;;;;;5050910;28;20187;-56
2022/09/10 06:19:20;;;;;;;1.00;0.90;;;16.30;99.90;;;;;;5051307;28;20179;-55
2022/09/10 06:21:48;;;;;;;1.23;1.13;;;16.80;99.90;;;;;;5045700;28;20209;-54
2022/09/10 06:24:14;;;;;;;2.42;1.10;;;16.30;99.90;;;;;;5043635;28;20174;-55
2022/09/10 06:26:40;;;;;;;1.90;1.30;;;16.50;99.90;;;;;;5037610;28;20192;-55
2022/09/10 06:29:06;;;;;;;1.10;1.00;;;16.20;99.90;;;;;;5050139;28;20181;-56
2022/09/10 06:31:33;;;;;;;1.85;1.30;;;16.80;99.90;;;;;;5047911;28;20251;-57
2022/09/10 06:34:00;;;;;;;3.60;1.00;;;16.40;99.90;;;;;;5051445;28;20193;-56
2022/09/10 06:36:27;;;;;;;1.50;1.40;;;16.50;99.90;;;;;;5049457;28;20185;-57
2022/09/10 06:38:56;;;;;;;1.35;0.85;;;16.50;99.90;;;;;;5045402;28;20193;-56
2022/09/10 06:41:23;;;;;;;1.83;1.00;;;16.40;99.90;;;;;;5050104;28;20213;-57
2022/09/10 06:43:49;;;;;;;1.80;0.93;;;16.80;99.90;;;;;;5049560;28;20177;-54
2022/09/10 06:46:16;;;;;;;1.80;1.00;;;16.70;99.90;;;;;;5052022;28;20262;-55
2022/09/10 06:48:42;;;;;;;3.15;0.93;;;16.90;99.90;;;;;;5049434;28;20447;-55
2022/09/10 06:51:11;;;;;;;1.25;0.93;;;16.90;99.90;;;;;;5034073;28;20202;-54
2022/09/10 06:53:37;;;;;;;1.30;0.88;;;17.10;99.90;;;;;;5050549;28;20189;-53
2022/09/10 06:56:04;;;;;;;2.15;0.95;;;17.00;99.90;;;;;;5044383;28;20189;-54
2022/09/10 06:58:33;;;;;;;2.88;0.80;;;17.20;99.90;;;;;;5051095;28;20213;-54
2022/09/10 07:01:06;;;;;;;1.85;1.10;;;17.10;99.90;;;;;;5051806;28;20209;-56
2022/09/10 07:03:32;;;;;;;1.35;0.80;;;17.30;99.90;;;;;;5049120;28;20187;-56
2022/09/10 07:06:05;;;;;;;3.40;0.90;;;17.50;99.90;;;;;;5050495;28;20200;-57
2022/09/10 07:08:31;;;;;;;1.05;0.80;;;17.40;99.90;;;;;;5046737;28;20185;-58
2022/09/10 07:11:06;;;;;;;0.80;0.70;;;17.40;99.90;;;;;;5029509;28;20208;-56
2022/09/10 07:13:33;;;;;;;0.80;0.80;;;17.60;99.90;;;;;;5045494;28;20562;-57
2022/09/10 07:16:00;;;;;;;1.35;0.90;;;17.50;99.90;;;;;;5039797;28;20192;-61
2022/09/10 07:18:27;;;;;;;1.10;1.00;;;17.60;99.90;;;;;;5042773;28;20216;-61
2022/09/10 07:20:53;;;;;;;2.05;0.88;;;17.90;99.90;;;;;;5031869;28;20653;-60
2022/09/10 07:23:20;;;;;;;0.93;0.80;;;18.00;99.90;;;;;;5051870;28;20189;-56
2022/09/10 07:25:46;;;;;;;1.75;1.10;;;18.10;99.90;;;;;;5049853;28;20188;-56
2022/09/10 07:28:14;;;;;;;1.40;1.17;;;18.20;99.90;;;;;;5051072;28;20273;-56
2022/09/10 07:30:42;;;;;;;1.38;0.90;;;18.30;99.90;;;;;;5045566;28;20472;-56
2022/09/10 07:33:09;;;;;;;1.40;1.00;;;18.20;99.90;;;;;;5045423;28;20196;-56
2022/09/10 07:35:37;;;;;;;1.20;1.10;;;18.20;99.90;;;;;;5044295;28;20192;-55
2022/09/10 07:38:04;;;;;;;1.27;0.90;;;18.30;99.90;;;;;;5046468;28;20194;-55
2022/09/10 07:40:30;;;;;;;1.38;1.05;;;18.40;99.90;;;;;;5042644;28;20283;-57
2022/09/10 07:42:56;;;;;;;1.55;1.00;;;18.50;99.90;;;;;;5051449;28;20186;-57
2022/09/10 07:45:22;;;;;;;3.57;1.20;;;18.80;99.90;;;;;;5049433;28;20196;-57
2022/09/10 07:47:48;;;;;;;1.60;1.00;;;18.90;99.90;;;;;;5047719;28;20220;-55
2022/09/10 07:50:14;;;;;;;1.50;1.13;;;19.10;99.90;;;;;;5039267;28;20974;-55
2022/09/10 07:52:40;;;;;;;1.03;0.80;;;19.10;99.90;;;;;;5047252;28;20196;-56
2022/09/10 07:55:06;;;;;;;1.15;0.85;;;19.10;99.90;;;;;;5048790;28;20965;-57
2022/09/10 07:57:36;;;;;;;1.25;1.00;;;18.90;99.90;;;;;;5048449;28;20380;-57
2022/09/10 08:00:05;;;;;;;1.50;1.10;;;18.90;99.90;;;;;;5041843;28;20205;-55
2022/09/10 08:02:31;;;;;;;1.00;0.90;;;19.30;99.90;;;;;;5047202;28;20182;-57
2022/09/10 08:04:57;;;;;;;1.40;1.10;;;19.50;99.90;;;;;;5047135;28;20183;-57
2022/09/10 08:07:22;;;;;;;1.90;1.10;;;19.80;99.90;;;;;;5050684;28;20562;-57
2022/09/10 08:09:48;;;;;;;0.70;0.60;;;19.90;99.90;;;;;;5048147;28;20190;-57
2022/09/10 08:12:16;;;;;;;1.77;0.87;;;20.00;99.90;;;;;;5046782;28;20611;-57
2022/09/10 08:14:41;;;;;;;1.55;1.02;;;20.30;99.90;;;;;;5032273;28;20597;-55
2022/09/10 08:17:07;;;;;;;1.60;0.80;;;20.50;99.90;;;;;;5043131;28;20217;-54
2022/09/10 08:19:33;;;;;;;1.70;1.17;;;20.20;99.90;;;;;;5047612;28;20209;-54
2022/09/10 08:21:58;;;;;;;1.87;1.00;;;20.10;99.90;;;;;;5032006;28;20209;-54
2022/09/10 08:24:24;;;;;;;1.93;0.83;;;20.20;99.90;;;;;;5047517;28;20197;-54
2022/09/10 08:26:50;;;;;;;2.33;1.00;;;20.00;99.90;;;;;;5049951;28;20639;-58
2022/09/10 08:29:16;;;;;;;1.80;1.20;;;20.60;99.90;;;;;;5048183;28;20276;-53
2022/09/10 08:31:42;;;;;;;3.13;0.90;;;21.30;98.90;;;;;;5048664;28;20305;-55
2022/09/10 08:34:10;;;;;;;0.90;0.70;;;21.10;99.10;;;;;;5046823;28;20197;-54
2022/09/10 08:36:37;;;;;;;0.80;0.70;;;20.90;98.90;;;;;;5049955;28;20274;-54
2022/09/10 08:39:02;;;;;;;2.55;2.35;;;20.80;99.20;;;;;;5044911;28;20213;-54
2022/09/10 08:41:45;;;;;;;1.03;0.93;;;20.70;99.50;;;;;;5048913;28;20241;-54
2022/09/10 08:44:24;;;;;;;1.80;0.75;;;20.60;99.60;;;;;;5045481;28;20543;-53
2022/09/10 08:47:08;;;;;;;1.17;0.70;;;20.90;99.50;;;;;;5047567;28;20614;-53
2022/09/10 08:49:44;;;;;;;1.45;0.90;;;21.00;98.40;;;;;;5046111;28;20618;-51
2022/09/10 08:52:44;;;;;;;2.70;0.80;;;21.10;98.40;;;;;;5043821;28;20181;-50
2022/09/10 08:55:16;;;;;;;1.60;0.80;;;21.40;97.40;;;;;;5044138;28;20248;-52
2022/09/10 08:57:50;;;;;;;0.70;0.60;;;21.50;98.20;;;;;;5044204;28;20472;-56
2022/09/10 09:00:22;;;;;;;0.93;0.80;;;21.70;96.80;;;;;;5035170;28;20232;-53
2022/09/10 09:03:03;;;;;;;2.53;1.80;;;21.90;96.40;;;;;;5046766;28;20443;-53
2022/09/10 09:05:39;;;;;;;1.20;0.80;;;22.00;96.00;;;;;;5048646;28;20435;-52
2022/09/10 09:08:05;;;;;;;1.67;0.90;;;22.20;94.70;;;;;;5045622;28;20805;-52
2022/09/10 09:11:01;;;;;;;1.77;0.90;;;22.20;94.20;;;;;;5041899;28;20479;-53
2022/09/10 09:14:00;;;;;;;1.00;0.80;;;22.30;94.30;;;;;;5027396;28;20564;-53
2022/09/10 09:16:38;;;;;;;2.47;1.10;;;21.90;93.70;;;;;;5037352;28;20448;-54
2022/09/10 09:19:38;;;;;;;1.33;1.10;;;21.80;94.40;;;;;;5018908;28;20454;-54
2022/09/10 09:22:27;;;;;;;2.03;1.08;;;21.60;95.00;;;;;;5043132;28;20459;-53
2022/09/10 09:25:08;;;;;;;2.17;1.25;;;21.40;95.40;;;;;;5036082;28;20174;-53
2022/09/10 09:27:38;;;;;;;2.40;1.17;;;21.30;94.70;;;;;;5045995;28;20191;-53
2022/09/10 09:30:30;;;;;;;1.30;0.95;;;21.20;94.40;;;;;;5046814;28;20762;-53
2022/09/10 09:33:02;;;;;;;2.80;1.25;;;21.20;95.00;;;;;;5041822;28;20201;-52
2022/09/10 09:35:32;;;;;;;2.10;1.00;;;21.00;94.80;;;;;;5037754;28;20331;-54
2022/09/10 09:38:15;;;;;;;2.97;0.80;;;21.10;94.80;;;;;;5045486;28;20184;-55
2022/09/10 09:41:05;;;;;;;3.50;1.20;;;21.10;94.60;;;;;;5031001;28;20217;-53
2022/09/10 09:44:10;;;;;;;2.05;1.30;;;21.30;94.40;;;;;;5029906;28;20538;-54
2022/09/10 09:46:37;;;;;;;3.25;1.00;;;21.00;94.50;;;;;;5035362;28;20189;-53
2022/09/10 09:49:05;;;;;;;1.30;0.90;;;20.90;94.70;;;;;;5050769;28;20601;-53
2022/09/10 09:51:34;;;;;;;1.98;1.30;;;20.90;94.90;;;;;;5049940;28;20213;-55
2022/09/10 09:54:06;;;;;;;1.33;0.80;;;21.00;94.90;;;;;;5028503;28;20243;-53
2022/09/10 09:56:39;;;;;;;3.70;0.95;;;21.00;95.00;;;;;;5044184;28;20592;-53
2022/09/10 09:59:22;;;;;;;1.77;1.10;;;21.20;94.80;;;;;;5048202;28;20284;-55
2022/09/10 10:01:48;;;;;;;3.87;1.33;;;21.30;94.00;;;;;;5047685;28;20475;-53
2022/09/10 10:04:23;;;;;;;1.73;1.10;;;21.30;94.00;;;;;;5051803;28;20429;-54
2022/09/10 10:06:57;;;;;;;3.97;1.60;;;21.10;94.10;;;;;;5052422;28;20531;-54
2022/09/10 10:09:30;;;;;;;1.37;1.10;;;21.10;94.60;;;;;;5046088;28;20178;-55
2022/09/10 10:11:56;;;;;;;1.15;0.80;;;21.20;94.30;;;;;;5048947;28;20479;-55
2022/09/10 10:14:40;;;;;;;2.97;1.33;;;21.00;94.10;;;;;;5047819;28;20209;-54
2022/09/10 10:17:24;;;;;;;3.53;1.00;;;21.20;94.50;;;;;;5043845;28;20525;-55
2022/09/10 10:20:01;;;;;;;2.17;1.13;;;21.00;93.90;;;;;;5047120;28;20642;-55
2022/09/10 10:22:31;;;;;;;1.92;1.27;;;21.10;94.20;;;;;;5052472;28;20185;-54
2022/09/10 10:24:59;;;;;;;1.42;1.10;;;21.00;94.50;;;;;;5044491;28;20194;-55
2022/09/10 10:27:31;;;;;;;2.20;1.00;;;20.90;94.30;;;;;;5051888;28;20221;-54
2022/09/10 10:30:22;;;;;;;1.38;1.00;;;21.00;94.30;;;;;;5051923;28;20193;-54
2022/09/10 10:32:57;;;;;;;1.60;0.90;;;21.20;94.30;;;;;;5048895;28;20194;-53
2022/09/10 10:35:29;;;;;;;1.43;0.90;;;21.40;94.30;;;;;;5032087;28;21092;-54
2022/09/10 10:38:24;;;;;;;1.43;1.00;;;21.50;93.40;;;;;;5051341;28;20448;-55
2022/09/10 10:41:28;;;;;;;1.17;0.93;;;21.50;93.50;;;;;;5043567;28;20540;-54
2022/09/10 10:44:30;;;;;;;1.73;0.70;;;21.60;93.50;;;;;;5048477;28;20221;-54
2022/09/10 10:47:14;;;;;;;1.87;1.00;;;21.60;93.10;;;;;;5051224;28;20443;-53
2022/09/10 10:49:40;;;;;;;1.05;0.70;;;21.70;93.10;;;;;;5049792;28;20439;-53
2022/09/10 10:52:20;;;;;;;1.73;1.07;;;21.80;92.80;;;;;;5051847;28;20553;-53
2022/09/10 10:55:05;;;;;;;1.80;1.30;;;21.90;92.80;;;;;;5045366;28;20264;-54
2022/09/10 10:57:48;;;;;;;1.47;1.00;;;22.10;92.60;;;;;;5046189;28;20964;-54
2022/09/10 11:00:18;;;;;;;1.57;1.20;;;22.10;92.40;;;;;;5044794;28;20474;-54
2022/09/10 11:03:10;;;;;;;2.80;0.80;;;22.20;92.10;;;;;;5050206;28;20523;-54
2022/09/10 11:05:37;;;;;;;1.30;1.00;;;22.20;91.00;;;;;;5049834;28;20811;-54
2022/09/10 11:08:18;;;;;;;2.70;1.30;;;22.30;91.40;;;;;;5049698;28;20523;-52
2022/09/10 11:10:57;;;;;;;1.63;0.80;;;22.40;90.40;;;;;;5048207;28;20539;-54
2022/09/10 11:13:45;;;;;;;1.13;1.00;;;22.40;90.20;;;;;;5052309;28;20437;-53
2022/09/10 11:17:07;;;;;;;1.33;0.90;;;22.40;90.20;;;;;;5032689;28;20778;-54
2022/09/10 11:19:39;;;;;;;0.90;0.80;;;22.40;88.90;;;;;;4998871;28;20446;-54
2022/09/10 11:22:16;;;;;;;1.33;0.90;;;22.60;88.10;;;;;;5042248;28;20447;-54
2022/09/10 11:25:01;;;;;;;2.27;0.97;;;22.90;88.00;;;;;;5044830;28;20462;-53
2022/09/10 11:27:37;;;;;;;1.93;0.80;;;23.10;84.90;;;;;;5044178;28;20502;-54
2022/09/10 11:30:11;;;;;;;3.50;1.43;;;23.30;84.00;;;;;;5046226;28;20497;-53
2022/09/10 11:32:45;;;;;;;1.37;1.13;;;23.30;84.00;;;;;;5046348;28;20531;-53
2022/09/10 11:35:26;;;;;;;1.73;1.20;;;23.00;82.70;;;;;;5045498;28;20439;-54
2022/09/10 11:38:13;;;;;;;2.27;1.17;;;22.90;83.90;;;;;;5049152;28;20515;-54
2022/09/10 11:40:55;;;;;;;1.20;0.70;;;22.30;83.60;;;;;;5047182;28;20851;-52
2022/09/10 11:43:32;;;;;;;1.73;0.77;;;21.90;84.50;;;;;;5049636;28;20583;-53
2022/09/10 11:46:03;;;;;;;2.20;0.93;;;21.60;85.90;;;;;;5040878;28;20790;-53
2022/09/10 11:48:40;;;;;;;3.83;1.23;;;21.80;88.10;;;;;;5025373;28;20440;-53
2022/09/10 11:51:13;;;;;;;1.37;1.10;;;21.70;89.40;;;;;;5026962;28;20466;-53
2022/09/10 11:53:39;;;;;;;2.83;1.80;;;21.50;89.10;;;;;;5045225;28;20715;-54
2022/09/10 11:56:29;;;;;;;1.80;1.00;;;21.40;89.30;;;;;;5044279;28;20662;-52
2022/09/10 11:59:26;;;;;;;2.22;1.20;;;21.30;90.40;;;;;;5047802;28;20198;-53
2022/09/10 12:02:01;;;;;;;3.95;1.80;;;21.40;90.50;;;;;;5047446;28;20221;-51
2022/09/10 12:04:57;;;;;;;2.05;1.15;;;21.30;90.20;;;;;;5041893;28;20193;-53
2022/09/10 12:07:39;;;;;;;2.13;1.10;;;21.50;90.10;;;;;;5046908;28;20544;-52
2022/09/10 12:10:20;;;;;;;3.00;1.47;;;21.50;89.70;;;;;;5037839;28;20228;-52
2022/09/10 12:12:52;;;;;;;1.13;0.90;;;21.60;89.30;;;;;;5044386;28;20440;-53
2022/09/10 12:15:23;;;;;;;2.47;1.10;;;21.70;87.80;;;;;;5043417;28;20448;-53
2022/09/10 12:18:00;;;;;;;1.37;0.83;;;21.70;88.20;;;;;;5047829;28;20519;-54
2022/09/10 12:20:37;;;;;;;1.97;0.90;;;21.80;87.30;;;;;;5047135;28;20479;-53
2022/09/10 12:23:03;;;;;;;1.00;0.83;;;21.60;85.90;;;;;;5045561;28;20531;-54
2022/09/10 12:25:31;;;;;;;3.47;1.00;;;21.40;86.70;;;;;;5044693;28;20440;-54
2022/09/10 12:28:06;;;;;;;1.10;0.90;;;21.50;87.00;;;;;;5043510;28;20272;-54
2022/09/10 12:30:34;;;;;;;3.00;1.25;;;22.50;87.80;;;;;;5043188;28;20387;-54
2022/09/10 12:33:12;;;;;;;2.70;1.23;;;21.50;88.90;;;;;;5043586;28;20273;-54
2022/09/10 12:35:45;;;;;;;1.45;1.20;;;21.40;89.10;;;;;;5048939;28;20486;-54
2022/09/10 12:38:48;;;;;;;1.80;1.33;;;21.40;88.90;;;;;;5044117;28;20228;-53
2022/09/10 12:41:20;;;;;;;2.50;1.30;;;21.50;88.00;;;;;;5045919;28;20300;-54
2022/09/10 12:43:46;;;;;;;2.60;1.60;;;21.70;88.20;;;;;;5045954;28;20626;-54
2022/09/10 12:46:11;;;;;;;2.20;1.30;;;21.80;88.20;;;;;;5038549;28;20531;-54
2022/09/10 12:48:42;;;;;;;1.93;1.10;;;21.80;89.00;;;;;;5044503;28;20436;-54
2022/09/10 12:51:19;;;;;;;2.30;1.70;;;21.80;89.80;;;;;;5046620;28;20212;-54
2022/09/10 12:53:54;;;;;;;2.35;1.10;;;21.70;87.60;;;;;;5043491;28;20458;-54
2022/09/10 12:56:30;;;;;;;3.47;1.67;;;21.40;87.30;;;;;;5046111;28;20181;-54
2022/09/10 12:59:23;;;;;;;4.32;2.85;;;21.30;88.50;;;;;;5046938;28;20207;-55
2022/09/10 13:01:50;;;;;;;2.28;1.00;;;21.40;88.40;;;;;;5049174;28;20221;-53
2022/09/10 13:04:29;;;;;;;2.08;1.48;;;21.40;88.10;;;;;;5047723;28;20376;-53
2022/09/10 13:07:26;;;;;;;1.85;0.90;;;21.40;88.30;;;;;;5045058;28;20231;-53
2022/09/10 13:10:12;;;;;;;1.63;1.20;;;21.40;88.80;;;;;;5041834;28;20189;-54